Organ Cave, West Virginia
Current Conditions -  °F | °C
As of 10:35 AM on Monday 22 Dec 2014 (Local Time) from KLWB Reporting Station
Unknown Precip Unknown Precip  
Wind Chill: 33°   Ceiling: 1700
Heat Index: 37°   Visibility: 7mi
Dew Point: 31°   Wind: 5mph
Humidity: 80%   Direction: 80°E
Pressure: 30.13"   Gusts: NA
Location:  37.7253°N, 80.4371°W
Report Text: KLWB 221535Z AUTO 08004KT 7SM UP OVC017 03/M01 A3013 RMK AO2 T00261006
Loading
Personal Weather Stations






























Interactive Weather Map New forecast layout! Learn more

10-Day Weather Forecast

Advertisements
Track Severe Weather on mobile